createdAt,value
2024-02-13T00:01:22.109Z,100326.22
2024-02-13T00:03:48.723Z,100329.16
2024-02-13T00:06:18.614Z,100333.00
2024-02-13T00:08:46.297Z,100329.28
2024-02-13T00:11:14.631Z,100340.59
2024-02-13T00:13:44.289Z,100347.50
2024-02-13T00:16:18.547Z,100347.44
2024-02-13T00:18:47.673Z,100348.56
2024-02-13T00:21:16.443Z,100347.19
2024-02-13T00:23:43.324Z,100345.84
2024-02-13T00:26:10.336Z,100357.16
2024-02-13T00:28:38.366Z,100372.25
2024-02-13T00:31:10.424Z,100366.22
2024-02-13T00:33:37.060Z,100351.72
2024-02-13T00:36:04.701Z,100369.38
2024-02-13T00:38:31.272Z,100380.56
2024-02-13T00:40:57.837Z,100386.06
2024-02-13T00:43:24.669Z,100393.66
2024-02-13T00:45:53.650Z,100393.66
2024-02-13T00:48:25.054Z,100406.78
2024-02-13T00:50:52.892Z,100399.22
2024-02-13T00:53:22.536Z,100409.50
2024-02-13T00:55:50.659Z,100402.84
2024-02-13T00:58:17.292Z,100417.25
2024-02-13T01:00:43.979Z,100424.97
2024-02-13T01:03:13.256Z,100427.53
2024-02-13T01:05:42.233Z,100421.72
2024-02-13T01:08:09.289Z,100438.75
2024-02-13T01:10:35.820Z,100421.78
2024-02-13T01:13:02.349Z,100436.38
2024-02-13T01:15:29.817Z,100435.31
2024-02-13T01:17:56.486Z,100447.38
2024-02-13T01:20:25.345Z,100452.56
2024-02-13T01:22:54.872Z,100460.34
2024-02-13T01:25:21.398Z,100450.97
2024-02-13T01:27:48.355Z,100454.97
2024-02-13T01:30:15.146Z,100453.16
2024-02-13T01:32:44.880Z,100456.53
2024-02-13T01:35:12.618Z,100457.44
2024-02-13T01:37:40.807Z,100455.00
2024-02-13T01:40:08.391Z,100471.75
2024-02-13T01:42:41.091Z,100450.50
2024-02-13T01:45:08.492Z,100433.50
2024-02-13T01:47:37.080Z,100470.00
2024-02-13T01:50:07.016Z,100450.44
2024-02-13T01:52:35.902Z,100468.34
2024-02-13T01:55:05.891Z,100459.28
2024-02-13T01:57:36.396Z,100468.09
2024-02-13T02:00:06.788Z,100479.50
2024-02-13T02:02:36.476Z,100458.16
2024-02-13T02:05:03.037Z,100471.78
2024-02-13T02:07:31.863Z,100484.59
2024-02-13T02:10:01.634Z,100481.16
2024-02-13T02:12:28.093Z,100467.66
2024-02-13T02:14:54.782Z,100477.88
2024-02-13T02:17:21.324Z,100479.59
2024-02-13T02:19:47.809Z,100438.84
2024-02-13T02:22:14.292Z,100426.91
2024-02-13T02:24:40.747Z,100489.78
2024-02-13T02:27:07.310Z,100488.91
2024-02-13T02:29:34.254Z,100464.34
2024-02-13T02:32:01.011Z,100490.53
2024-02-13T02:34:27.467Z,100494.69
2024-02-13T02:36:53.983Z,100484.59
2024-02-13T02:39:20.649Z,100500.75
2024-02-13T02:41:53.246Z,100500.69
2024-02-13T02:44:22.935Z,100497.31
2024-02-13T02:46:51.807Z,100504.16
2024-02-13T02:49:20.225Z,100473.56
2024-02-13T02:51:47.920Z,100509.97
2024-02-13T02:54:14.826Z,100506.56
2024-02-13T02:56:44.672Z,100481.19
2024-02-13T02:59:14.029Z,100511.81
2024-02-13T03:01:42.590Z,100521.16
2024-02-13T03:04:11.974Z,100515.94
2024-02-13T03:06:42.117Z,100521.06
2024-02-13T03:09:11.274Z,100524.53
2024-02-13T03:11:40.206Z,100533.09
2024-02-13T03:14:06.743Z,100525.47
2024-02-13T03:16:36.097Z,100528.88
2024-02-13T03:19:04.420Z,100534.88
2024-02-13T03:21:38.889Z,100537.44
2024-02-13T03:24:08.114Z,100535.75
2024-02-13T03:26:37.260Z,100535.81
2024-02-13T03:29:03.856Z,100536.91
2024-02-13T03:31:30.320Z,100539.66
2024-02-13T03:33:56.993Z,100514.28
2024-02-13T03:36:23.539Z,100526.25
2024-02-13T03:38:54.522Z,100527.00
2024-02-13T03:41:21.734Z,100510.91
2024-02-13T03:43:50.464Z,100554.25
2024-02-13T03:46:17.023Z,100547.56
2024-02-13T03:48:43.596Z,100558.75
2024-02-13T03:51:12.604Z,100560.34
2024-02-13T03:53:41.462Z,100556.09
2024-02-13T03:56:09.229Z,100551.03
2024-02-13T03:58:36.161Z,100559.56
2024-02-13T04:01:04.969Z,100560.38
2024-02-13T04:03:33.946Z,100560.44
2024-02-13T04:06:02.905Z,100570.75
2024-02-13T04:08:31.941Z,100570.84
2024-02-13T04:10:58.723Z,100575.00
2024-02-13T04:13:27.491Z,100584.56
2024-02-13T04:15:56.801Z,100573.41
2024-02-13T04:18:25.803Z,100586.22
2024-02-13T04:20:52.379Z,100586.13
2024-02-13T04:23:18.903Z,100588.88
2024-02-13T04:25:50.351Z,100576.88
2024-02-13T04:28:21.585Z,100592.25
2024-02-13T04:30:48.803Z,100579.47
2024-02-13T04:33:15.532Z,100591.28
2024-02-13T04:35:42.108Z,100580.19
2024-02-13T04:38:10.554Z,100589.56
2024-02-13T04:40:42.615Z,100584.44
2024-02-13T04:43:11.174Z,100594.78
2024-02-13T04:45:39.940Z,100589.69
2024-02-13T04:48:09.532Z,100591.34
2024-02-13T04:50:36.108Z,100598.16
2024-02-13T04:53:03.987Z,100594.66
2024-02-13T04:55:35.367Z,100593.00
2024-02-13T04:58:05.566Z,100589.66
2024-02-13T05:00:38.229Z,100606.63
2024-02-13T05:03:18.203Z,100606.63
2024-02-13T05:06:03.760Z,100604.16
2024-02-13T05:08:31.534Z,100599.84
2024-02-13T05:10:58.054Z,100581.31
2024-02-13T05:13:24.613Z,100602.75
2024-02-13T05:15:51.474Z,100608.56
2024-02-13T05:18:24.286Z,100604.44
2024-02-13T05:20:51.288Z,100580.63
2024-02-13T05:23:21.801Z,100605.28
2024-02-13T05:25:49.829Z,100622.28
2024-02-13T05:28:17.099Z,100615.50
2024-02-13T05:30:43.665Z,100614.63
2024-02-13T05:33:13.003Z,100621.50
2024-02-13T05:35:40.125Z,100631.06
2024-02-13T05:38:10.688Z,100625.09
2024-02-13T05:40:39.615Z,100602.16
2024-02-13T05:43:08.347Z,100627.66
2024-02-13T05:45:35.600Z,100609.72
2024-02-13T05:48:07.084Z,100630.28
2024-02-13T05:50:35.904Z,100637.13
2024-02-13T05:53:02.583Z,100629.50
2024-02-13T05:55:29.590Z,100641.44
2024-02-13T05:57:56.124Z,100641.31
2024-02-13T06:00:25.602Z,100642.22
2024-02-13T06:03:02.137Z,100651.59
2024-02-13T06:05:31.648Z,100655.91
2024-02-13T06:07:58.282Z,100661.88
2024-02-13T06:10:25.935Z,100664.72
2024-02-13T06:12:52.440Z,100668.25
2024-02-13T06:15:18.901Z,100674.25
2024-02-13T06:17:45.715Z,100678.53
2024-02-13T06:20:13.861Z,100680.25
2024-02-13T06:22:41.036Z,100674.28
2024-02-13T06:25:09.961Z,100664.00
2024-02-13T06:27:36.620Z,100679.25
2024-02-13T06:30:06.133Z,100686.88
2024-02-13T06:32:32.696Z,100692.84
2024-02-13T06:34:59.309Z,100686.84
2024-02-13T06:37:28.119Z,100687.66
2024-02-13T06:39:59.565Z,100689.25
2024-02-13T06:42:26.032Z,100692.69
2024-02-13T06:44:55.136Z,100696.13
2024-02-13T06:47:27.169Z,100688.47
2024-02-13T06:49:56.005Z,100700.31
2024-02-13T06:52:22.957Z,100712.25
2024-02-13T06:54:50.883Z,100707.19
2024-02-13T06:57:17.875Z,100715.72
2024-02-13T06:59:44.433Z,100714.88
2024-02-13T07:02:11.435Z,100719.06
2024-02-13T07:04:39.016Z,100728.50
2024-02-13T07:07:19.422Z,100729.34
2024-02-13T07:09:54.770Z,100730.16
2024-02-13T07:12:23.653Z,100737.19
2024-02-13T07:14:54.057Z,100734.75
2024-02-13T07:17:20.572Z,100739.88
2024-02-13T07:19:47.274Z,100735.50
2024-02-13T07:22:18.635Z,100738.06
2024-02-13T07:24:45.678Z,100735.47
2024-02-13T07:27:17.433Z,100735.41
2024-02-13T07:29:46.318Z,100714.94
2024-02-13T07:32:13.622Z,100737.09
2024-02-13T07:34:43.784Z,100760.94
2024-02-13T07:37:10.492Z,100754.16
2024-02-13T07:39:37.013Z,100754.06
2024-02-13T07:42:06.289Z,100761.66
2024-02-13T07:44:33.102Z,100760.81
2024-02-13T07:46:59.745Z,100764.16
2024-02-13T07:49:28.664Z,100757.31
2024-02-13T07:51:57.622Z,100752.94
2024-02-13T07:54:29.694Z,100753.00
2024-02-13T07:56:59.429Z,100754.72
2024-02-13T07:59:30.610Z,100750.41
2024-02-13T08:01:58.487Z,100742.59
2024-02-13T08:04:27.505Z,100760.31
2024-02-13T08:06:59.447Z,100761.94
2024-02-13T08:09:25.970Z,100762.72
2024-02-13T08:11:55.201Z,100759.09
2024-02-13T08:14:21.812Z,100764.97
2024-02-13T08:16:50.129Z,100777.69
2024-02-13T08:19:23.950Z,100772.41
2024-02-13T08:21:50.510Z,100766.25
2024-02-13T08:24:18.107Z,100784.91
2024-02-13T08:26:46.064Z,100775.38
2024-02-13T08:29:12.568Z,100782.91
2024-02-13T08:31:41.460Z,100779.47
2024-02-13T08:34:09.115Z,100775.03
2024-02-13T08:36:38.207Z,100773.28
2024-02-13T08:39:07.188Z,100756.13
2024-02-13T08:41:35.801Z,100784.03
2024-02-13T08:44:04.637Z,100780.69
2024-02-13T08:46:31.431Z,100773.75
2024-02-13T08:49:02.138Z,100760.13
2024-02-13T08:51:29.379Z,100785.63
2024-02-13T08:53:57.451Z,100788.84
2024-02-13T08:56:24.092Z,100778.31
2024-02-13T08:58:53.959Z,100778.31
2024-02-13T09:01:23.235Z,100761.88
2024-02-13T09:03:52.062Z,100773.72
2024-02-13T09:06:21.716Z,100785.50
2024-02-13T09:08:53.257Z,100767.50
2024-02-13T09:11:20.163Z,100783.72
2024-02-13T09:13:47.165Z,100780.91
2024-02-13T09:16:17.164Z,100773.16
2024-02-13T09:18:43.934Z,100777.81
2024-02-13T09:21:11.568Z,100791.72
2024-02-13T09:23:38.462Z,100785.66
2024-02-13T09:26:05.350Z,100785.75
2024-02-13T09:28:32.312Z,100789.44
2024-02-13T09:31:01.222Z,100789.69
2024-02-13T09:33:30.884Z,100784.88
2024-02-13T09:35:59.910Z,100784.84
2024-02-13T09:38:27.013Z,100772.28
2024-02-13T09:40:53.808Z,100787.47
2024-02-13T09:43:23.717Z,100783.06
2024-02-13T09:45:50.384Z,100794.19
2024-02-13T09:48:26.908Z,100791.34
2024-02-13T09:50:59.484Z,100790.88
2024-02-13T09:53:28.346Z,100799.13
2024-02-13T09:55:58.494Z,100804.53
2024-02-13T09:58:26.011Z,100810.81
2024-02-13T10:00:59.638Z,100811.03
2024-02-13T10:03:30.159Z,100812.50
2024-02-13T10:05:57.406Z,100805.03
2024-02-13T10:08:29.338Z,100810.13
2024-02-13T10:11:03.555Z,100816.53
2024-02-13T10:13:43.724Z,100807.75
2024-02-13T10:16:30.196Z,100810.47
2024-02-13T10:18:58.974Z,100823.44
2024-02-13T10:21:30.558Z,100824.16
2024-02-13T10:24:08.037Z,100814.44
2024-02-13T10:26:35.947Z,100816.53
2024-02-13T10:29:02.568Z,100829.94
2024-02-13T10:31:35.882Z,100826.28
2024-02-13T10:34:06.542Z,100832.44
2024-02-13T10:36:36.268Z,100818.16
2024-02-13T10:39:10.247Z,100824.34
2024-02-13T10:41:45.075Z,100822.44
2024-02-13T10:44:15.388Z,100821.09
2024-02-13T10:46:43.674Z,100820.53
2024-02-13T10:49:32.353Z,100791.53
2024-02-13T10:52:00.443Z,100785.41
2024-02-13T10:54:27.600Z,100815.31
2024-02-13T10:56:56.190Z,100815.66
2024-02-13T10:59:29.297Z,100811.06
2024-02-13T11:02:00.133Z,100809.84
2024-02-13T11:04:31.398Z,100807.38
2024-02-13T11:06:59.778Z,100807.31
2024-02-13T11:09:26.685Z,100808.69
2024-02-13T11:11:53.443Z,100802.00
2024-02-13T11:14:26.460Z,100765.94
2024-02-13T11:17:10.433Z,100792.69
2024-02-13T11:19:42.482Z,100803.91
2024-02-13T11:22:13.564Z,100807.69
2024-02-13T11:24:50.283Z,100797.69
2024-02-13T11:27:26.856Z,100789.06
2024-02-13T11:30:00.682Z,100791.25
2024-02-13T11:32:33.156Z,100790.50
2024-02-13T11:35:00.538Z,100783.88
2024-02-13T11:37:31.458Z,100780.03
2024-02-13T11:39:58.857Z,100781.91
2024-02-13T11:42:33.633Z,100760.53
2024-02-13T11:45:01.735Z,100774.38
2024-02-13T11:47:28.557Z,100783.06
2024-02-13T11:52:24.417Z,100773.34
2024-02-13T11:54:51.775Z,100768.28
2024-02-13T11:57:26.471Z,100776.84
2024-02-13T12:00:05.384Z,100769.66
2024-02-13T12:02:34.527Z,100777.16
2024-02-13T12:05:01.494Z,100766.88
2024-02-13T12:07:29.074Z,100780.66
2024-02-13T12:09:56.120Z,100780.25
2024-02-13T12:12:25.529Z,100773.03
2024-02-13T12:14:53.856Z,100778.78
2024-02-13T12:17:22.372Z,100776.19
2024-02-13T12:19:49.589Z,100772.53
2024-02-13T12:22:17.950Z,100760.91
2024-02-13T12:24:46.613Z,100753.25
2024-02-13T12:27:16.768Z,100770.88
2024-02-13T12:29:49.074Z,100748.16
2024-02-13T12:32:21.401Z,100778.75
2024-02-13T12:34:49.941Z,100763.75
2024-02-13T12:37:18.565Z,100777.50
2024-02-13T12:39:47.866Z,100775.63
2024-02-13T12:42:14.810Z,100768.44
2024-02-13T12:44:45.154Z,100771.38
2024-02-13T12:47:15.013Z,100763.97
2024-02-13T12:49:47.800Z,100737.66
2024-02-13T12:52:23.452Z,100771.13
2024-02-13T12:54:50.992Z,100759.09
2024-02-13T12:57:18.265Z,100769.47
2024-02-13T12:59:45.676Z,100760.59
2024-02-13T13:02:14.799Z,100724.66
2024-02-13T13:04:43.985Z,100757.81
2024-02-13T13:07:15.656Z,100749.84
2024-02-13T13:09:43.930Z,100752.59
2024-02-13T13:12:13.567Z,100755.94
2024-02-13T13:14:45.405Z,100758.09
2024-02-13T13:17:12.414Z,100758.31
2024-02-13T13:19:39.099Z,100760.88
2024-02-13T13:22:06.680Z,100766.22
2024-02-13T13:24:34.126Z,100760.16
2024-02-13T13:27:02.078Z,100742.66
2024-02-13T13:29:30.748Z,100752.84
2024-02-13T13:31:57.325Z,100757.22
2024-02-13T13:34:29.254Z,100754.97
2024-02-13T13:36:56.303Z,100758.47
2024-02-13T13:39:30.196Z,100738.63
2024-02-13T13:42:09.654Z,100757.50
2024-02-13T13:44:36.745Z,100753.72
2024-02-13T13:47:06.114Z,100723.56
2024-02-13T13:49:32.706Z,100748.22
2024-02-13T13:51:59.328Z,100750.28
2024-02-13T13:54:25.939Z,100749.03
2024-02-13T13:56:52.481Z,100747.09
2024-02-13T13:59:21.290Z,100748.03
2024-02-13T14:01:47.856Z,100754.97
2024-02-13T14:04:16.673Z,100751.03
2024-02-13T14:06:43.287Z,100749.28
2024-02-13T14:09:09.978Z,100750.28
2024-02-13T14:11:38.952Z,100743.78
2024-02-13T14:14:08.357Z,100755.28
2024-02-13T14:16:34.833Z,100752.19
2024-02-13T14:19:01.442Z,100757.09
2024-02-13T14:21:33.103Z,100751.75
2024-02-13T14:23:59.822Z,100766.56
2024-02-13T14:26:26.794Z,100754.47
2024-02-13T14:28:53.257Z,100758.97
2024-02-13T14:31:19.788Z,100754.38
2024-02-13T14:33:46.597Z,100760.03
2024-02-13T14:36:15.421Z,100739.97
2024-02-13T14:38:42.139Z,100768.59
2024-02-13T14:41:09.551Z,100760.94
2024-02-13T14:43:38.469Z,100769.16
2024-02-13T14:46:06.040Z,100763.00
2024-02-13T14:48:34.959Z,100767.03
2024-02-13T14:51:04.212Z,100753.72
2024-02-13T14:53:33.050Z,100719.94
2024-02-13T14:56:02.115Z,100755.72
2024-02-13T14:58:38.228Z,100760.25
2024-02-13T15:01:10.263Z,100770.13
2024-02-13T15:03:37.423Z,100762.13
2024-02-13T15:06:06.609Z,100756.41
2024-02-13T15:08:35.542Z,100757.22
2024-02-13T15:11:04.578Z,100759.75
2024-02-13T15:13:31.183Z,100772.88
2024-02-13T15:16:00.785Z,100772.06
2024-02-13T15:18:28.712Z,100768.81
2024-02-13T15:20:57.599Z,100776.06
2024-02-13T15:23:28.994Z,100772.84
2024-02-13T15:25:56.251Z,100781.53
2024-02-13T15:28:23.422Z,100783.97
2024-02-13T15:30:52.492Z,100784.09
2024-02-13T15:33:22.540Z,100792.66
2024-02-13T15:36:06.682Z,100792.66
2024-02-13T15:38:52.243Z,100784.03
2024-02-13T15:41:37.492Z,100786.94
2024-02-13T15:44:24.826Z,100782.28
2024-02-13T15:46:59.460Z,100784.47
2024-02-13T15:49:26.328Z,100780.34
2024-02-13T15:51:53.521Z,100777.47
2024-02-13T15:54:20.010Z,100779.94
2024-02-13T15:56:50.556Z,100788.09
2024-02-13T15:59:19.627Z,100779.84
2024-02-13T16:01:48.904Z,100783.81
2024-02-13T16:04:21.596Z,100767.84
2024-02-13T16:06:55.865Z,100787.09
2024-02-13T16:09:22.627Z,100788.13
2024-02-13T16:11:49.538Z,100787.19
2024-02-13T16:14:17.775Z,100785.53
2024-02-13T16:16:44.319Z,100788.41
2024-02-13T16:19:14.086Z,100784.13
2024-02-13T16:21:45.542Z,100780.53
2024-02-13T16:24:14.331Z,100784.88
2024-02-13T16:26:43.145Z,100790.94
2024-02-13T16:29:09.625Z,100786.31
2024-02-13T16:31:36.504Z,100793.25
2024-02-13T16:34:03.255Z,100793.19
2024-02-13T16:36:29.820Z,100796.06
2024-02-13T16:38:56.387Z,100793.47
2024-02-13T16:41:22.981Z,100785.88
2024-02-13T16:43:50.304Z,100789.81
2024-02-13T16:46:22.488Z,100783.34
2024-02-13T16:48:53.204Z,100796.22
2024-02-13T16:51:24.159Z,100793.56
2024-02-13T16:53:50.874Z,100795.19
2024-02-13T16:56:18.286Z,100797.66
2024-02-13T16:58:45.259Z,100803.44
2024-02-13T17:01:12.185Z,100801.00
2024-02-13T17:03:39.430Z,100804.38
2024-02-13T17:06:07.392Z,100810.03
2024-02-13T17:08:40.387Z,100806.56
2024-02-13T17:11:10.405Z,100813.66
2024-02-13T17:13:37.185Z,100794.19
2024-02-13T17:16:03.810Z,100807.16
2024-02-13T17:18:31.028Z,100814.84
2024-02-13T17:20:59.838Z,100808.88
2024-02-13T17:23:26.327Z,100813.72
2024-02-13T17:25:52.914Z,100791.84
2024-02-13T17:28:21.768Z,100827.47
2024-02-13T17:30:52.087Z,100821.72
2024-02-13T17:33:19.349Z,100820.88
2024-02-13T17:35:46.113Z,100828.78
2024-02-13T17:38:15.173Z,100819.41
2024-02-13T17:40:41.858Z,100828.06
2024-02-13T17:43:15.873Z,100830.69
2024-02-13T17:45:44.978Z,100827.47
2024-02-13T17:48:11.530Z,100814.69
2024-02-13T17:50:38.256Z,100810.66
2024-02-13T17:53:04.962Z,100804.81
2024-02-13T17:55:31.430Z,100812.66
2024-02-13T17:57:58.441Z,100816.06
2024-02-13T18:00:30.512Z,100807.78
2024-02-13T18:02:58.528Z,100818.16
2024-02-13T18:05:25.138Z,100806.31
2024-02-13T18:07:54.250Z,100814.09
2024-02-13T18:10:20.747Z,100819.28
2024-02-13T18:12:52.222Z,100815.19
2024-02-13T18:15:18.761Z,100806.88
2024-02-13T18:17:49.874Z,100794.91
2024-02-13T18:20:17.022Z,100802.09
2024-02-13T18:22:45.383Z,100813.38
2024-02-13T18:25:12.087Z,100806.75
2024-02-13T18:27:41.077Z,100803.34
2024-02-13T18:30:08.762Z,100799.88
2024-02-13T18:32:37.761Z,100804.56
2024-02-13T18:35:04.504Z,100784.28
2024-02-13T18:37:33.326Z,100797.78
2024-02-13T18:39:59.857Z,100803.84
2024-02-13T18:42:28.860Z,100798.84
2024-02-13T18:44:57.223Z,100782.84
2024-02-13T18:47:23.845Z,100808.28
2024-02-13T18:49:53.541Z,100773.72
2024-02-13T18:52:20.090Z,100797.34
2024-02-13T18:54:49.093Z,100787.72
2024-02-13T18:57:15.578Z,100799.63
2024-02-13T18:59:45.141Z,100791.13
2024-02-13T19:02:11.727Z,100786.81
2024-02-13T19:04:39.846Z,100786.34
2024-02-13T19:07:06.496Z,100794.56
2024-02-13T19:09:33.032Z,100801.31
2024-02-13T19:11:59.719Z,100792.66
2024-02-13T19:14:26.430Z,100786.00
2024-02-13T19:16:54.204Z,100792.84
2024-02-13T19:19:22.878Z,100791.69
2024-02-13T19:21:49.423Z,100785.50
2024-02-13T19:24:16.180Z,100786.81
2024-02-13T19:26:44.910Z,100792.06
2024-02-13T19:29:11.477Z,100791.41
2024-02-13T19:31:37.989Z,100794.03
2024-02-13T19:34:04.661Z,100796.50
2024-02-13T19:36:32.460Z,100795.03
2024-02-13T19:39:02.755Z,100807.91
2024-02-13T19:41:32.238Z,100800.94
2024-02-13T19:43:59.712Z,100801.84
2024-02-13T19:46:31.026Z,100802.09
2024-02-13T19:48:57.782Z,100793.56
2024-02-13T19:51:24.828Z,100804.56
2024-02-13T19:53:52.623Z,100802.09
2024-02-13T19:56:19.293Z,100810.69
2024-02-13T19:58:45.902Z,100803.94
2024-02-13T20:01:12.776Z,100793.75
2024-02-13T20:03:40.167Z,100803.75
2024-02-13T20:06:09.314Z,100800.31
2024-02-13T20:08:36.813Z,100774.25
2024-02-13T20:11:03.862Z,100761.38
2024-02-13T20:13:36.999Z,100808.19
2024-02-13T20:16:04.167Z,100815.00
2024-02-13T20:18:33.986Z,100808.63
2024-02-13T20:21:00.704Z,100811.84
2024-02-13T20:23:28.076Z,100801.78
2024-02-13T20:25:54.643Z,100809.38
2024-02-13T20:28:23.244Z,100812.13
2024-02-13T20:30:49.703Z,100808.00
2024-02-13T20:33:18.812Z,100799.31
2024-02-13T20:36:02.824Z,100812.28
2024-02-13T20:38:31.663Z,100811.19
2024-02-13T20:40:58.731Z,100791.97
2024-02-13T20:43:27.948Z,100814.09
2024-02-13T20:45:54.701Z,100823.44
2024-02-13T20:48:22.338Z,100822.47
2024-02-13T20:50:49.036Z,100809.84
2024-02-13T20:53:15.819Z,100810.69
2024-02-13T20:55:42.423Z,100815.03
2024-02-13T20:58:09.051Z,100812.44
2024-02-13T21:00:36.395Z,100808.50
2024-02-13T21:03:05.481Z,100815.31
2024-02-13T21:05:32.762Z,100819.94
2024-02-13T21:08:01.313Z,100818.22
2024-02-13T21:10:28.587Z,100812.50
2024-02-13T21:12:57.977Z,100820.97
2024-02-13T21:15:26.755Z,100809.94
2024-02-13T21:17:55.503Z,100820.13
2024-02-13T21:20:30.662Z,100813.22
2024-02-13T21:23:15.998Z,100791.88
2024-02-13T21:25:44.966Z,100823.19
2024-02-13T21:28:11.400Z,100821.34
2024-02-13T21:30:40.479Z,100830.66
2024-02-13T21:33:08.517Z,100829.66
2024-02-13T21:35:35.315Z,100830.72
2024-02-13T21:38:03.346Z,100817.16
2024-02-13T21:40:30.572Z,100825.31
2024-02-13T21:42:57.036Z,100820.28
2024-02-13T21:45:27.783Z,100819.47
2024-02-13T21:47:54.941Z,100818.78
2024-02-13T21:50:25.611Z,100815.38
2024-02-13T21:52:52.180Z,100826.28
2024-02-13T21:55:18.772Z,100818.38
2024-02-13T21:57:48.224Z,100823.31
2024-02-13T22:00:15.363Z,100804.53
2024-02-13T22:02:42.281Z,100818.94
2024-02-13T22:05:08.953Z,100819.78
2024-02-13T22:07:38.991Z,100806.13
2024-02-13T22:10:06.717Z,100803.44
2024-02-13T22:12:33.223Z,100812.19
2024-02-13T22:14:59.806Z,100814.69
2024-02-13T22:17:26.405Z,100817.53
2024-02-13T22:19:57.778Z,100814.00
2024-02-13T22:22:24.321Z,100813.88
2024-02-13T22:24:51.678Z,100808.91
2024-02-13T22:27:21.447Z,100810.97
2024-02-13T22:29:50.371Z,100813.28
2024-02-13T22:32:18.335Z,100813.19
2024-02-13T22:34:47.617Z,100818.31
2024-02-13T22:37:16.565Z,100818.56
2024-02-13T22:39:43.783Z,100811.59
2024-02-13T22:42:12.690Z,100812.31
2024-02-13T22:44:39.761Z,100817.66
2024-02-13T22:47:09.811Z,100827.16
2024-02-13T22:49:38.592Z,100825.50
2024-02-13T22:52:05.183Z,100818.53
2024-02-13T22:54:33.970Z,100816.75
2024-02-13T22:57:00.767Z,100813.31
2024-02-13T22:59:27.347Z,100822.56
2024-02-13T23:01:55.020Z,100821.69
2024-02-13T23:04:21.762Z,100819.03
2024-02-13T23:06:50.926Z,100831.13
2024-02-13T23:09:18.014Z,100825.97
2024-02-13T23:11:48.651Z,100818.59
2024-02-13T23:14:15.595Z,100829.50
2024-02-13T23:16:46.891Z,100824.78
2024-02-13T23:19:16.150Z,100826.22
2024-02-13T23:21:47.540Z,100827.97
2024-02-13T23:24:14.294Z,100830.34
2024-02-13T23:26:41.361Z,100826.94
2024-02-13T23:29:08.135Z,100824.31
2024-02-13T23:31:34.605Z,100816.63
2024-02-13T23:34:04.373Z,100826.75
2024-02-13T23:36:30.972Z,100823.41
2024-02-13T23:38:57.584Z,100825.41
2024-02-13T23:41:26.434Z,100824.63
2024-02-13T23:43:52.921Z,100829.66
2024-02-13T23:46:21.760Z,100832.09
2024-02-13T23:48:48.422Z,100821.03
2024-02-13T23:51:18.061Z,100831.16
2024-02-13T23:53:52.729Z,100835.41
2024-02-13T23:56:19.448Z,100843.94
2024-02-13T23:58:47.524Z,100837.97
